Marathon, Texas
Current Conditions -  °F | °C
As of 8:55 PM on Friday 19 Dec 2014 (Local Time) from KE38 Reporting Station
Clear Clear  
Wind Chill: 30°   Ceiling: Unl
Heat Index: 36°   Visibility: 10mi
Dew Point: 28°   Wind: 7mph
Humidity: 73%   Direction: 260°W
Pressure: 30.23"   Gusts: NA
Location:  30.21°N, 103.25°W
Report Text: KE38 200255Z AUTO 26006KT 10SM CLR 02/M02 A3023 RMK AO2 T00211023
Loading
Personal Weather Stations






























Interactive Weather Map New forecast layout! Learn more

10-Day Weather Forecast

Advertisements
Track Severe Weather on mobile